createdAt,value
2023-05-06T00:07:49.522Z,9.41
2023-05-06T00:10:40.066Z,9.45
2023-05-06T00:13:25.406Z,9.41
2023-05-06T00:16:11.503Z,9.32
2023-05-06T00:18:57.549Z,9.27
2023-05-06T00:21:42.267Z,9.20
2023-05-06T00:24:09.224Z,9.14
2023-05-06T00:26:36.257Z,9.12
2023-05-06T00:29:03.228Z,9.14
2023-05-06T00:31:30.170Z,9.11
2023-05-06T00:33:57.182Z,9.07
2023-05-06T00:36:24.128Z,9.01
2023-05-06T00:38:51.258Z,9.00
2023-05-06T00:41:18.230Z,8.99
2023-05-06T00:43:45.195Z,8.81
2023-05-06T00:46:14.890Z,8.87
2023-05-06T00:48:43.557Z,8.87
2023-05-06T00:51:11.748Z,8.79
2023-05-06T00:53:40.171Z,8.75
2023-05-06T00:56:08.031Z,8.77
2023-05-06T00:58:35.619Z,8.78
2023-05-06T01:01:03.431Z,8.78
2023-05-06T01:03:30.504Z,8.77
2023-05-06T01:06:33.099Z,8.83
2023-05-06T01:09:51.281Z,8.83
2023-05-06T01:13:13.189Z,8.79
2023-05-06T01:16:06.590Z,8.69
2023-05-06T01:18:45.710Z,8.70
2023-05-06T01:21:13.928Z,8.69
2023-05-06T01:23:58.379Z,8.59
2023-05-06T01:26:26.055Z,8.64
2023-05-06T01:28:53.436Z,8.59
2023-05-06T01:31:30.256Z,8.58
2023-05-06T01:34:00.479Z,8.51
2023-05-06T01:36:53.840Z,8.54
2023-05-06T01:39:27.007Z,8.49
2023-05-06T01:41:57.655Z,8.49
2023-05-06T01:44:27.879Z,8.46
2023-05-06T01:46:56.524Z,8.23
2023-05-06T01:49:25.551Z,8.44
2023-05-06T01:51:53.595Z,8.40
2023-05-06T01:54:20.701Z,8.45
2023-05-06T01:56:47.691Z,8.43
2023-05-06T01:59:14.669Z,8.47
2023-05-06T02:01:41.566Z,8.42
2023-05-06T02:04:08.658Z,8.41
2023-05-06T02:06:35.647Z,8.39
2023-05-06T02:09:02.781Z,8.43
2023-05-06T02:11:29.700Z,7.97
2023-05-06T02:13:56.670Z,8.32
2023-05-06T02:16:23.609Z,8.35
2023-05-06T02:18:51.109Z,8.35
2023-05-06T02:21:18.037Z,8.33
2023-05-06T02:23:44.943Z,8.30
2023-05-06T02:26:11.923Z,8.41
2023-05-06T02:28:38.814Z,8.44
2023-05-06T02:31:06.171Z,8.41
2023-05-06T02:33:33.196Z,8.30
2023-05-06T02:36:00.177Z,8.36
2023-05-06T02:38:27.065Z,8.42
2023-05-06T02:40:53.991Z,8.41
2023-05-06T02:43:21.019Z,8.36
2023-05-06T02:45:48.182Z,8.31
2023-05-06T02:48:15.119Z,8.26
2023-05-06T02:50:42.176Z,8.26
2023-05-06T02:53:10.641Z,8.23
2023-05-06T02:55:37.705Z,8.24
2023-05-06T02:58:04.607Z,8.25
2023-05-06T03:00:31.532Z,8.26
2023-05-06T03:02:58.508Z,8.25
2023-05-06T03:05:25.446Z,8.20
2023-05-06T03:07:52.723Z,8.20
2023-05-06T03:10:19.839Z,8.21
2023-05-06T03:12:46.734Z,8.18
2023-05-06T03:15:13.787Z,8.18
2023-05-06T03:17:40.701Z,8.10
2023-05-06T03:20:09.140Z,8.07
2023-05-06T03:22:36.103Z,8.09
2023-05-06T03:25:03.095Z,8.06
2023-05-06T03:27:30.035Z,8.06
2023-05-06T03:29:57.030Z,8.11
2023-05-06T03:32:23.962Z,8.14
2023-05-06T03:34:51.199Z,8.18
2023-05-06T03:37:19.046Z,8.19
2023-05-06T03:39:46.014Z,8.18
2023-05-06T03:42:12.982Z,8.24
2023-05-06T03:44:39.925Z,8.30
2023-05-06T03:47:06.845Z,8.35
2023-05-06T03:49:33.782Z,8.42
2023-05-06T03:52:00.782Z,8.45
2023-05-06T03:54:27.688Z,8.49
2023-05-06T03:56:54.628Z,8.53
2023-05-06T03:59:21.541Z,8.57
2023-05-06T04:01:48.493Z,8.62
2023-05-06T04:04:15.436Z,8.72
2023-05-06T04:06:42.448Z,8.77
2023-05-06T04:09:09.790Z,8.85
2023-05-06T04:11:36.689Z,8.90
2023-05-06T04:14:03.632Z,8.93
2023-05-06T04:16:30.706Z,9.00
2023-05-06T04:18:57.893Z,9.02
2023-05-06T04:21:24.884Z,8.99
2023-05-06T04:23:51.831Z,9.07
2023-05-06T04:26:18.736Z,9.10
2023-05-06T04:28:45.826Z,9.16
2023-05-06T04:31:14.700Z,9.23
2023-05-06T04:33:42.242Z,9.09
2023-05-06T04:36:09.437Z,9.31
2023-05-06T04:38:37.619Z,9.41
2023-05-06T04:41:05.750Z,9.39
2023-05-06T04:43:33.146Z,9.46
2023-05-06T04:46:00.239Z,9.51
2023-05-06T04:48:27.334Z,9.43
2023-05-06T04:50:54.465Z,9.47
2023-05-06T04:53:21.523Z,9.53
2023-05-06T04:55:48.466Z,9.61
2023-05-06T04:58:15.455Z,9.76
2023-05-06T05:00:42.465Z,9.86
2023-05-06T05:03:09.497Z,10.00
2023-05-06T05:05:36.520Z,10.11
2023-05-06T05:08:03.551Z,10.07
2023-05-06T05:10:30.578Z,10.26
2023-05-06T05:12:57.702Z,10.39
2023-05-06T05:15:24.755Z,10.52
2023-05-06T05:17:51.988Z,10.63
2023-05-06T05:20:18.972Z,10.69
2023-05-06T05:22:45.931Z,10.79
2023-05-06T05:25:13.198Z,10.96
2023-05-06T05:27:42.393Z,11.06
2023-05-06T05:30:09.935Z,11.16
2023-05-06T05:32:36.905Z,10.83
2023-05-06T05:35:04.276Z,10.98
2023-05-06T05:37:31.472Z,11.14
2023-05-06T05:39:58.638Z,11.33
2023-05-06T05:42:25.623Z,11.01
2023-05-06T05:44:52.923Z,11.70
2023-05-06T05:47:19.907Z,12.32
2023-05-06T05:49:46.910Z,12.67
2023-05-06T05:52:13.809Z,12.80
2023-05-06T05:54:41.106Z,12.94
2023-05-06T05:57:08.076Z,12.98
2023-05-06T05:59:35.272Z,12.81
2023-05-06T06:02:02.278Z,12.88
2023-05-06T06:04:29.230Z,12.35
2023-05-06T06:07:01.575Z,12.25
2023-05-06T06:09:28.517Z,12.57
2023-05-06T06:11:55.628Z,12.71
2023-05-06T06:14:22.668Z,12.87
2023-05-06T06:16:49.644Z,13.13
2023-05-06T06:19:16.936Z,13.35
2023-05-06T06:21:43.959Z,13.55
2023-05-06T06:24:10.922Z,13.40
2023-05-06T06:26:37.861Z,13.61
2023-05-06T06:29:04.764Z,13.68
2023-05-06T06:31:34.164Z,13.75
2023-05-06T06:34:01.202Z,13.74
2023-05-06T06:36:28.205Z,13.83
2023-05-06T06:38:55.154Z,14.05
2023-05-06T06:41:22.087Z,14.35
2023-05-06T06:43:48.987Z,14.46
2023-05-06T06:46:16.238Z,14.58
2023-05-06T06:48:43.174Z,14.77
2023-05-06T06:51:10.137Z,14.71
2023-05-06T06:53:37.221Z,14.79
2023-05-06T06:56:04.271Z,14.89
2023-05-06T06:58:33.499Z,14.83
2023-05-06T07:01:00.460Z,14.80
2023-05-06T07:03:27.415Z,14.67
2023-05-06T07:05:54.294Z,14.64
2023-05-06T07:08:22.539Z,14.76
2023-05-06T07:10:49.460Z,14.95
2023-05-06T07:13:16.894Z,15.01
2023-05-06T07:15:43.863Z,15.09
2023-05-06T07:18:10.859Z,14.72
2023-05-06T07:20:37.918Z,14.84
2023-05-06T07:23:04.877Z,14.83
2023-05-06T07:25:32.558Z,14.77
2023-05-06T07:27:59.595Z,14.67
2023-05-06T07:30:26.698Z,14.83
2023-05-06T07:32:53.743Z,15.13
2023-05-06T07:35:20.767Z,15.25
2023-05-06T07:37:47.938Z,15.12
2023-05-06T07:40:14.906Z,15.27
2023-05-06T07:42:43.212Z,15.31
2023-05-06T07:45:10.886Z,15.41
2023-05-06T07:47:38.223Z,15.45
2023-05-06T07:50:07.088Z,15.44
2023-05-06T07:52:34.136Z,15.54
2023-05-06T07:55:01.187Z,15.48
2023-05-06T07:57:28.219Z,15.56
2023-05-06T07:59:55.405Z,15.42
2023-05-06T08:02:22.543Z,15.45
2023-05-06T08:04:51.614Z,15.40
2023-05-06T08:07:19.396Z,15.33
2023-05-06T08:09:46.676Z,15.45
2023-05-06T08:12:13.895Z,15.45
2023-05-06T08:14:41.052Z,15.48
2023-05-06T08:17:07.937Z,15.49
2023-05-06T08:19:34.910Z,15.42
2023-05-06T08:22:01.811Z,15.30
2023-05-06T08:24:28.847Z,15.18
2023-05-06T08:26:55.836Z,15.10
2023-05-06T08:29:22.828Z,15.05
2023-05-06T08:31:49.809Z,15.04
2023-05-06T08:34:18.740Z,15.02
2023-05-06T08:36:45.636Z,14.99
2023-05-06T08:39:14.743Z,15.05
2023-05-06T08:41:47.413Z,15.03
2023-05-06T08:44:18.989Z,15.27
2023-05-06T08:46:47.250Z,15.47
2023-05-06T08:49:14.415Z,15.64
2023-05-06T08:51:46.959Z,15.79
2023-05-06T08:54:13.958Z,15.63
2023-05-06T08:56:46.130Z,15.76
2023-05-06T08:59:14.028Z,15.92
2023-05-06T09:01:41.148Z,16.07
2023-05-06T09:04:08.610Z,16.15
2023-05-06T09:06:35.649Z,16.01
2023-05-06T09:09:02.609Z,15.87
2023-05-06T09:11:30.843Z,16.10
2023-05-06T09:14:27.211Z,16.37
2023-05-06T09:16:54.219Z,16.76
2023-05-06T09:19:23.207Z,16.94
2023-05-06T09:21:51.833Z,17.31
2023-05-06T09:24:19.346Z,17.41
2023-05-06T09:26:47.216Z,17.16
2023-05-06T09:29:14.311Z,17.14
2023-05-06T09:31:43.214Z,17.39
2023-05-06T09:34:11.143Z,16.95
2023-05-06T09:36:38.376Z,16.89
2023-05-06T09:39:05.934Z,16.82
2023-05-06T09:41:33.608Z,16.36
2023-05-06T09:44:00.747Z,16.39
2023-05-06T09:46:30.629Z,16.02
2023-05-06T09:48:58.943Z,15.65
2023-05-06T09:51:28.725Z,15.26
2023-05-06T09:53:57.960Z,15.11
2023-05-06T09:56:26.324Z,15.13
2023-05-06T09:58:55.933Z,15.10
2023-05-06T10:01:35.535Z,14.97
2023-05-06T10:04:08.708Z,14.83
2023-05-06T10:06:37.224Z,14.62
2023-05-06T10:09:06.499Z,14.50
2023-05-06T10:11:33.666Z,14.34
2023-05-06T10:14:01.622Z,14.10
2023-05-06T10:16:30.069Z,13.89
2023-05-06T10:18:58.625Z,13.79
2023-05-06T10:21:30.270Z,13.74
2023-05-06T10:24:13.680Z,13.64
2023-05-06T10:26:42.936Z,13.55
2023-05-06T10:29:11.165Z,13.43
2023-05-06T10:31:55.528Z,13.36
2023-05-06T10:34:24.461Z,13.25
2023-05-06T10:36:57.763Z,12.88
2023-05-06T10:39:26.171Z,12.76
2023-05-06T10:41:53.572Z,12.71
2023-05-06T10:44:58.890Z,12.66
2023-05-06T10:47:26.137Z,12.77
2023-05-06T10:50:24.865Z,12.85
2023-05-06T10:52:56.838Z,12.79
2023-05-06T10:55:29.583Z,12.82
2023-05-06T10:58:00.600Z,12.76
2023-05-06T11:00:31.702Z,12.59
2023-05-06T11:03:02.329Z,12.71
2023-05-06T11:05:29.466Z,12.70
2023-05-06T11:08:22.259Z,12.73
2023-05-06T11:10:49.312Z,12.70
2023-05-06T11:13:28.039Z,12.45
2023-05-06T11:15:56.861Z,12.43
2023-05-06T11:18:27.899Z,12.24
2023-05-06T11:21:03.734Z,12.20
2023-05-06T11:23:43.178Z,12.24
2023-05-06T11:26:11.474Z,12.24
2023-05-06T11:28:39.293Z,12.36
2023-05-06T11:31:06.564Z,12.47
2023-05-06T11:33:35.926Z,12.49
2023-05-06T11:36:04.828Z,12.37
2023-05-06T11:38:45.938Z,12.19
2023-05-06T11:41:13.413Z,12.16
2023-05-06T11:43:40.505Z,12.11
2023-05-06T11:46:07.577Z,12.02
2023-05-06T11:48:34.614Z,12.03
2023-05-06T11:51:01.606Z,12.04
2023-05-06T11:53:30.220Z,12.06
2023-05-06T11:55:57.159Z,12.05
2023-05-06T11:58:26.825Z,12.08
2023-05-06T12:00:58.727Z,12.12
2023-05-06T12:03:27.800Z,12.11
2023-05-06T12:05:55.983Z,12.10
2023-05-06T12:08:28.210Z,12.01
2023-05-06T12:11:04.728Z,12.06
2023-05-06T12:13:32.144Z,12.12
2023-05-06T12:16:00.413Z,12.16
2023-05-06T12:18:28.138Z,12.15
2023-05-06T12:20:56.412Z,12.21
2023-05-06T12:23:23.702Z,12.23
2023-05-06T12:26:04.949Z,12.26
2023-05-06T12:28:36.883Z,12.29
2023-05-06T12:31:23.414Z,12.33
2023-05-06T12:33:50.883Z,12.38
2023-05-06T12:36:21.051Z,12.38
2023-05-06T12:38:52.912Z,12.37
2023-05-06T12:41:21.530Z,12.11
2023-05-06T12:43:48.601Z,11.88
2023-05-06T12:46:17.345Z,11.74
2023-05-06T12:49:01.113Z,11.77
2023-05-06T12:51:30.941Z,11.91
2023-05-06T12:53:58.213Z,11.82
2023-05-06T12:56:25.387Z,11.99
2023-05-06T12:59:02.654Z,12.06
2023-05-06T13:01:29.724Z,12.11
2023-05-06T13:03:59.414Z,11.96
2023-05-06T13:06:26.455Z,12.18
2023-05-06T13:08:53.457Z,12.23
2023-05-06T13:11:22.453Z,12.25
2023-05-06T13:13:49.446Z,12.31
2023-05-06T13:16:16.599Z,12.38
2023-05-06T13:18:43.582Z,12.39
2023-05-06T13:21:10.636Z,12.49
2023-05-06T13:23:38.343Z,12.53
2023-05-06T13:26:06.206Z,12.58
2023-05-06T13:28:34.157Z,12.63
2023-05-06T13:31:01.227Z,12.68
2023-05-06T13:33:28.172Z,12.68
2023-05-06T13:35:55.154Z,12.69
2023-05-06T13:38:22.216Z,12.80
2023-05-06T13:40:51.707Z,12.78
2023-05-06T13:43:19.595Z,12.91
2023-05-06T13:45:46.778Z,13.04
2023-05-06T13:48:14.338Z,13.13
2023-05-06T13:50:48.701Z,13.21
2023-05-06T13:53:15.782Z,13.34
2023-05-06T13:55:43.704Z,13.55
2023-05-06T13:58:11.367Z,13.74
2023-05-06T14:00:38.422Z,13.40
2023-05-06T14:03:05.479Z,13.43
2023-05-06T14:05:32.930Z,13.56
2023-05-06T14:08:00.060Z,13.58
2023-05-06T14:10:27.172Z,13.63
2023-05-06T14:12:54.189Z,13.60
2023-05-06T14:15:21.373Z,13.57
2023-05-06T14:17:48.338Z,13.72
2023-05-06T14:20:15.355Z,13.63
2023-05-06T14:22:44.206Z,13.85
2023-05-06T14:25:11.721Z,13.82
2023-05-06T14:27:39.011Z,13.57
2023-05-06T14:30:08.996Z,13.64
2023-05-06T14:32:37.200Z,13.26
2023-05-06T14:35:04.884Z,13.10
2023-05-06T14:37:31.843Z,13.23
2023-05-06T14:39:58.771Z,13.18
2023-05-06T14:42:25.903Z,13.08
2023-05-06T14:44:52.915Z,13.10
2023-05-06T14:47:20.040Z,13.15
2023-05-06T14:49:47.162Z,13.32
2023-05-06T14:52:14.066Z,13.59
2023-05-06T14:54:42.655Z,13.80
2023-05-06T14:57:10.243Z,13.96
2023-05-06T14:59:37.691Z,14.03
2023-05-06T15:02:07.260Z,14.05
2023-05-06T15:04:35.128Z,13.76
2023-05-06T15:07:02.410Z,13.73
2023-05-06T15:09:29.425Z,13.71
2023-05-06T15:11:56.418Z,13.71
2023-05-06T15:14:23.409Z,13.83
2023-05-06T15:16:50.323Z,13.84
2023-05-06T15:19:17.277Z,13.92
2023-05-06T15:21:44.294Z,13.71
2023-05-06T15:24:11.212Z,13.73
2023-05-06T15:26:38.104Z,13.83
2023-05-06T15:29:06.590Z,13.68
2023-05-06T15:31:39.181Z,13.64
2023-05-06T15:34:09.878Z,13.48
2023-05-06T15:36:37.308Z,13.79
2023-05-06T15:39:04.587Z,13.84
2023-05-06T15:41:33.663Z,13.91
2023-05-06T15:44:02.255Z,13.71
2023-05-06T15:46:30.925Z,13.59
2023-05-06T15:49:21.099Z,13.47
2023-05-06T15:51:44.976Z,13.24
2023-05-06T15:54:11.908Z,13.32
2023-05-06T15:56:41.444Z,13.22
2023-05-06T15:59:09.191Z,13.06
2023-05-06T16:02:18.770Z,13.01
2023-05-06T16:04:24.532Z,13.06
2023-05-06T16:06:51.673Z,12.95
2023-05-06T16:09:18.637Z,12.93
2023-05-06T16:11:45.582Z,13.07
2023-05-06T16:14:12.996Z,13.04
2023-05-06T16:16:40.084Z,12.96
2023-05-06T16:19:07.633Z,13.06
2023-05-06T16:21:34.742Z,13.08
2023-05-06T16:24:02.667Z,13.09
2023-05-06T16:26:29.776Z,13.24
2023-05-06T16:28:56.701Z,13.24
2023-05-06T16:31:23.735Z,13.13
2023-05-06T16:33:51.206Z,13.08
2023-05-06T16:36:18.149Z,13.02
2023-05-06T16:38:45.047Z,12.92
2023-05-06T16:41:11.964Z,12.97
2023-05-06T16:43:38.856Z,13.09
2023-05-06T16:46:06.536Z,13.16
2023-05-06T16:48:33.602Z,13.10
2023-05-06T16:51:00.650Z,13.13
2023-05-06T16:53:28.150Z,13.02
2023-05-06T16:55:55.698Z,13.00
2023-05-06T16:58:22.673Z,13.09
2023-05-06T17:00:52.802Z,13.08
2023-05-06T17:03:19.801Z,13.06
2023-05-06T17:05:47.132Z,12.96
2023-05-06T17:08:14.173Z,12.77
2023-05-06T17:10:41.116Z,12.76
2023-05-06T17:13:08.204Z,12.74
2023-05-06T17:15:35.360Z,12.68
2023-05-06T17:18:02.384Z,12.53
2023-05-06T17:20:29.523Z,12.54
2023-05-06T17:22:56.481Z,12.55
2023-05-06T17:25:23.666Z,12.37
2023-05-06T17:27:50.657Z,12.56
2023-05-06T17:30:17.673Z,12.50
2023-05-06T17:32:44.664Z,12.55
2023-05-06T17:35:12.193Z,12.39
2023-05-06T17:37:39.584Z,12.46
2023-05-06T17:40:07.837Z,12.50
2023-05-06T17:42:35.022Z,12.53
2023-05-06T17:45:02.018Z,12.40
2023-05-06T17:47:30.384Z,12.43
2023-05-06T17:49:57.704Z,12.45
2023-05-06T17:52:28.450Z,12.13
2023-05-06T17:55:10.614Z,12.45
2023-05-06T17:57:42.242Z,12.14
2023-05-06T18:00:09.832Z,12.28
2023-05-06T18:02:37.048Z,11.98
2023-05-06T18:05:04.671Z,12.10
2023-05-06T18:07:31.682Z,12.18
2023-05-06T18:09:58.637Z,12.04
2023-05-06T18:12:25.650Z,12.04
2023-05-06T18:14:52.600Z,11.99
2023-05-06T18:17:19.518Z,11.97
2023-05-06T18:19:46.531Z,11.94
2023-05-06T18:22:13.483Z,11.93
2023-05-06T18:24:40.433Z,11.83
2023-05-06T18:27:07.372Z,11.57
2023-05-06T18:29:35.343Z,11.59
2023-05-06T18:32:02.667Z,11.44
2023-05-06T18:34:29.698Z,11.42
2023-05-06T18:36:58.143Z,11.40
2023-05-06T18:39:25.607Z,11.41
2023-05-06T18:41:52.760Z,11.39
2023-05-06T18:44:19.869Z,11.34
2023-05-06T18:46:46.916Z,11.39
2023-05-06T18:49:14.407Z,11.40
2023-05-06T18:51:41.490Z,11.43
2023-05-06T18:54:08.634Z,11.39
2023-05-06T18:56:37.013Z,11.28
2023-05-06T18:59:04.069Z,11.43
2023-05-06T19:01:31.155Z,11.33
2023-05-06T19:03:58.379Z,11.36
2023-05-06T19:06:25.533Z,11.41
2023-05-06T19:08:53.831Z,11.40
2023-05-06T19:11:21.481Z,11.17
2023-05-06T19:13:49.617Z,11.34
2023-05-06T19:16:16.631Z,11.35
2023-05-06T19:18:43.706Z,11.36
2023-05-06T19:21:12.342Z,11.41
2023-05-06T19:23:39.467Z,11.46
2023-05-06T19:26:06.901Z,11.06
2023-05-06T19:28:34.511Z,11.33
2023-05-06T19:31:01.781Z,11.25
2023-05-06T19:33:28.873Z,11.28
2023-05-06T19:35:55.921Z,11.23
2023-05-06T19:38:22.840Z,11.18
2023-05-06T19:40:49.828Z,11.13
2023-05-06T19:43:16.880Z,10.98
2023-05-06T19:45:43.837Z,11.04
2023-05-06T19:48:10.874Z,11.06
2023-05-06T19:50:37.803Z,11.07
2023-05-06T19:53:04.740Z,11.08
2023-05-06T19:55:31.952Z,11.09
2023-05-06T19:57:59.321Z,11.07
2023-05-06T20:00:28.403Z,11.06
2023-05-06T20:02:57.809Z,11.02
2023-05-06T20:05:29.964Z,10.83
2023-05-06T20:07:59.677Z,10.77
2023-05-06T20:10:27.663Z,10.68
2023-05-06T20:12:57.317Z,10.92
2023-05-06T20:15:24.821Z,11.00
2023-05-06T20:17:51.777Z,10.82
2023-05-06T20:20:19.281Z,10.94
2023-05-06T20:22:46.341Z,10.90
2023-05-06T20:25:17.734Z,10.87
2023-05-06T20:27:45.571Z,10.91
2023-05-06T20:30:12.994Z,10.91
2023-05-06T20:32:40.917Z,10.96
2023-05-06T20:35:08.928Z,10.92
2023-05-06T20:37:36.871Z,10.89
2023-05-06T20:40:06.047Z,10.98
2023-05-06T20:42:33.115Z,10.78
2023-05-06T20:45:00.553Z,10.89
2023-05-06T20:47:27.720Z,10.82
2023-05-06T20:49:55.127Z,10.80
2023-05-06T20:52:22.225Z,10.99
2023-05-06T20:54:49.363Z,10.88
2023-05-06T20:57:17.316Z,10.82
2023-05-06T20:59:44.721Z,10.91
2023-05-06T21:02:11.697Z,11.00
2023-05-06T21:04:38.753Z,10.93
2023-05-06T21:07:05.773Z,10.86
2023-05-06T21:09:32.855Z,10.83
2023-05-06T21:11:59.789Z,10.90
2023-05-06T21:14:27.598Z,10.91
2023-05-06T21:16:54.570Z,10.94
2023-05-06T21:19:21.496Z,10.74
2023-05-06T21:22:00.844Z,10.87
2023-05-06T21:24:27.777Z,10.96
2023-05-06T21:26:54.806Z,10.92
2023-05-06T21:29:21.868Z,10.80
2023-05-06T21:31:48.780Z,10.76
2023-05-06T21:34:15.985Z,10.78
2023-05-06T21:36:43.092Z,10.83
2023-05-06T21:39:14.526Z,10.89
2023-05-06T21:41:41.501Z,10.85
2023-05-06T21:44:10.171Z,10.78
2023-05-06T21:46:38.171Z,10.63
2023-05-06T21:49:05.621Z,10.68
2023-05-06T21:51:36.382Z,10.68
2023-05-06T21:54:03.773Z,10.70
2023-05-06T21:56:30.711Z,10.66
2023-05-06T21:58:57.682Z,10.68
2023-05-06T22:01:29.367Z,10.55
2023-05-06T22:03:56.591Z,10.50
2023-05-06T22:06:23.722Z,10.43
2023-05-06T22:08:50.680Z,10.45
2023-05-06T22:11:17.737Z,10.41
2023-05-06T22:13:44.619Z,10.38
2023-05-06T22:16:11.787Z,10.40
2023-05-06T22:18:41.672Z,10.25
2023-05-06T22:21:09.956Z,10.29
2023-05-06T22:23:37.039Z,10.48
2023-05-06T22:26:04.011Z,10.45
2023-05-06T22:28:30.917Z,10.42
2023-05-06T22:30:57.867Z,10.35
2023-05-06T22:33:26.563Z,10.30
2023-05-06T22:35:53.849Z,10.52
2023-05-06T22:38:20.833Z,10.40
2023-05-06T22:40:47.795Z,10.45
2023-05-06T22:43:14.735Z,10.38
2023-05-06T22:45:41.704Z,10.41
2023-05-06T22:48:08.730Z,10.25
2023-05-06T22:50:36.554Z,10.15
2023-05-06T22:53:13.592Z,10.02
2023-05-06T22:55:41.706Z,10.01
2023-05-06T22:58:08.602Z,9.95
2023-05-06T23:00:35.585Z,9.92
2023-05-06T23:03:03.173Z,9.94
2023-05-06T23:05:30.185Z,9.90
2023-05-06T23:07:57.314Z,9.91
2023-05-06T23:10:24.298Z,9.80
2023-05-06T23:12:51.278Z,9.66
2023-05-06T23:15:18.257Z,9.58
2023-05-06T23:17:45.228Z,9.65
2023-05-06T23:20:13.114Z,9.45
2023-05-06T23:22:40.189Z,9.67
2023-05-06T23:25:10.782Z,9.70
2023-05-06T23:27:41.939Z,9.70
2023-05-06T23:30:09.570Z,9.79
2023-05-06T23:32:37.500Z,9.83
2023-05-06T23:35:05.133Z,9.79
2023-05-06T23:37:32.051Z,9.82
2023-05-06T23:39:58.999Z,9.80
2023-05-06T23:42:26.303Z,9.78
2023-05-06T23:44:53.752Z,9.80
2023-05-06T23:47:20.704Z,9.71
2023-05-06T23:49:49.957Z,9.69
2023-05-06T23:52:16.857Z,9.67
2023-05-06T23:54:44.217Z,9.71
2023-05-06T23:57:11.100Z,9.69
2023-05-06T23:59:38.023Z,9.55
